Time;durP1;ratioP1;P1;durP2;ratioP2;P2;SDS_P1;SDS_P2;PMS_P1;PMS_P2;Temp;Humidity;BMP_temperature;BMP_pressure;BME280_temperature;BME280_humidity;BME280_pressure;Samples;Min_cycle;Max_cycle;Signal;HPM_P1;HPM_P2
2023/05/22 00:00:18;;;;;;;21.47;19.23;;;;;;;14.99;100.00;101897.31;5034839;28;20797;-44
2023/05/22 00:02:47;;;;;;;22.53;20.20;;;;;;;14.97;100.00;101889.44;5034474;28;20972;-43
2023/05/22 00:05:17;;;;;;;20.63;18.90;;;;;;;14.95;100.00;101891.50;5034092;28;20563;-43
2023/05/22 00:07:45;;;;;;;20.00;18.10;;;;;;;14.94;100.00;101881.75;5034430;28;20968;-43
2023/05/22 00:10:13;;;;;;;21.23;19.17;;;;;;;14.94;100.00;101881.75;5034319;28;20451;-43
2023/05/22 00:12:40;;;;;;;20.53;18.40;;;;;;;14.92;100.00;101881.16;5034442;28;20995;-43
2023/05/22 00:15:10;;;;;;;21.30;19.40;;;;;;;14.90;100.00;101875.16;5034150;28;20486;-43
2023/05/22 00:17:39;;;;;;;18.57;16.97;;;;;;;14.87;100.00;101872.84;5034223;28;20504;-43
2023/05/22 00:20:09;;;;;;;20.57;18.43;;;;;;;14.88;100.00;101869.13;5034310;28;20428;-46
2023/05/22 00:22:37;;;;;;;20.70;18.80;;;;;;;14.87;100.00;101870.97;5033927;28;20443;-43
2023/05/22 00:25:07;;;;;;;18.33;16.73;;;;;;;14.84;100.00;101879.44;5033778;28;20560;-47
2023/05/22 00:27:34;;;;;;;19.47;17.77;;;;;;;14.79;100.00;101875.69;5032363;28;21011;-43
2023/05/22 00:30:02;;;;;;;21.50;19.40;;;;;;;14.78;100.00;101868.66;5033968;28;20432;-43
2023/05/22 00:32:30;;;;;;;20.50;18.07;;;;;;;14.77;100.00;101870.50;5033870;28;20432;-43
2023/05/22 00:34:59;;;;;;;31.37;18.47;;;;;;;14.74;100.00;101870.06;5033948;28;20863;-45
2023/05/22 00:37:27;;;;;;;19.73;17.10;;;;;;;14.74;100.00;101862.84;5033859;28;20530;-46
2023/05/22 00:39:55;;;;;;;19.13;17.57;;;;;;;14.75;100.00;101871.75;5034066;28;20478;-43
2023/05/22 00:42:23;;;;;;;19.90;17.90;;;;;;;14.76;100.00;101870.69;5033786;28;20519;-50
2023/05/22 00:44:50;;;;;;;19.60;17.70;;;;;;;14.75;100.00;101858.31;5033614;28;20439;-43
2023/05/22 00:47:18;;;;;;;18.50;16.80;;;;;;;14.68;100.00;101860.94;5032485;28;20515;-43
2023/05/22 00:49:46;;;;;;;19.17;17.47;;;;;;;14.68;100.00;101862.81;5033629;28;20436;-43
2023/05/22 00:52:16;;;;;;;21.47;19.20;;;;;;;14.63;100.00;101870.63;5033676;28;20823;-43
2023/05/22 00:54:44;;;;;;;20.07;18.17;;;;;;;14.65;100.00;101864.03;5033776;28;20499;-44
2023/05/22 00:57:12;;;;;;;19.00;16.80;;;;;;;14.59;100.00;101854.06;5033090;28;20882;-43
2023/05/22 00:59:40;;;;;;;18.13;16.30;;;;;;;14.61;100.00;101857.38;5033509;28;20501;-44
2023/05/22 01:02:08;;;;;;;20.00;18.10;;;;;;;14.55;100.00;101855.47;5033171;28;20436;-43
2023/05/22 01:04:36;;;;;;;17.67;16.07;;;;;;;14.55;100.00;101860.84;5033172;28;21007;-43
2023/05/22 01:07:04;;;;;;;20.03;17.83;;;;;;;14.52;100.00;101863.91;5030716;28;20464;-44
2023/05/22 01:09:33;;;;;;;18.97;17.00;;;;;;;14.47;100.00;101857.47;5033239;28;20909;-42
2023/05/22 01:12:13;;;;;;;20.20;18.20;;;;;;;14.44;100.00;101861.38;5033051;28;20432;-45
2023/05/22 01:14:47;;;;;;;18.33;16.73;;;;;;;14.42;100.00;101857.25;5033227;28;20436;-43
2023/05/22 01:17:23;;;;;;;20.37;18.37;;;;;;;14.37;100.00;101850.59;5032687;28;20480;-48
2023/05/22 01:20:05;;;;;;;19.90;17.80;;;;;;;14.38;100.00;101852.28;5033232;28;20428;-43
2023/05/22 01:23:31;;;;;;;19.20;17.30;;;;;;;14.33;100.00;101859.25;5032923;28;20805;-43
2023/05/22 01:26:31;;;;;;;20.23;18.27;;;;;;;14.31;100.00;101851.34;4950520;28;20479;-42
2023/05/22 01:29:14;;;;;;;19.00;17.40;;;;;;;14.28;100.00;101851.72;5008592;28;20479;-44
2023/05/22 01:31:45;;;;;;;17.87;16.27;;;;;;;14.30;100.00;101854.22;5033012;28;20458;-44
2023/05/22 01:34:16;;;;;;;18.57;16.63;;;;;;;14.25;100.00;101851.28;5032941;28;20948;-47
2023/05/22 01:36:46;;;;;;;20.43;18.60;;;;;;;14.23;100.00;101845.28;5032484;28;20538;-46
2023/05/22 01:39:15;;;;;;;17.83;16.23;;;;;;;14.19;100.00;101847.53;5032785;28;20528;-47
2023/05/22 01:41:43;;;;;;;17.70;16.10;;;;;;;14.17;100.00;101843.38;5032474;28;20446;-45
2023/05/22 01:44:11;;;;;;;19.67;17.50;;;;;;;14.17;100.00;101848.75;5032909;28;20494;-46
2023/05/22 01:46:38;;;;;;;18.87;16.93;;;;;;;14.13;100.00;101834.03;5031957;28;20476;-42
2023/05/22 01:49:08;;;;;;;20.70;18.53;;;;;;;14.12;100.00;101837.78;5032431;28;21035;-42
2023/05/22 01:51:45;;;;;;;19.53;17.80;;;;;;;14.07;100.00;101838.34;5032423;28;20440;-42
2023/05/22 01:54:19;;;;;;;19.13;17.57;;;;;;;14.05;100.00;101831.50;5032448;28;20535;-46
2023/05/22 01:56:53;;;;;;;20.10;18.20;;;;;;;14.03;100.00;101833.56;5032132;28;20460;-42
2023/05/22 01:59:29;;;;;;;20.90;16.97;;;;;;;13.97;100.00;101827.13;5032401;28;21015;-42
2023/05/22 02:02:00;;;;;;;19.50;17.43;;;;;;;13.95;100.00;101829.16;5032347;28;20450;-42
2023/05/22 02:04:31;;;;;;;20.00;17.87;;;;;;;13.88;100.00;101835.47;5032330;28;20439;-42
2023/05/22 02:07:00;;;;;;;20.53;18.63;;;;;;;13.85;100.00;101839.38;5031940;28;20510;-43
2023/05/22 02:09:30;;;;;;;17.90;16.50;;;;;;;13.85;100.00;101828.66;5032502;28;20508;-42
2023/05/22 02:12:00;;;;;;;19.37;17.37;;;;;;;13.84;100.00;101818.94;5032213;28;20472;-44
2023/05/22 02:14:29;;;;;;;19.80;17.13;;;;;;;13.79;100.00;101827.56;5032143;28;20933;-42
2023/05/22 02:16:57;;;;;;;19.60;17.50;;;;;;;13.78;100.00;101822.38;5030800;28;20464;-43
2023/05/22 02:19:24;;;;;;;20.47;18.67;;;;;;;13.78;100.00;101807.13;5032015;28;20483;-43
2023/05/22 02:21:53;;;;;;;19.93;18.07;;;;;;;13.73;100.00;101814.94;5032118;28;20479;-46
2023/05/22 02:24:22;;;;;;;20.53;18.50;;;;;;;13.72;100.00;101815.94;5032190;28;20523;-43
2023/05/22 02:26:50;;;;;;;20.47;18.43;;;;;;;13.71;100.00;101810.75;5029950;28;20873;-43
2023/05/22 02:29:18;;;;;;;19.73;17.70;;;;;;;13.69;100.00;101810.97;5031999;28;20487;-44
2023/05/22 02:31:46;;;;;;;23.80;17.90;;;;;;;13.66;100.00;101805.16;5031714;28;20436;-43
2023/05/22 02:34:13;;;;;;;20.27;18.47;;;;;;;13.65;100.00;101812.34;5032128;28;20490;-44
2023/05/22 02:36:41;;;;;;;19.90;18.07;;;;;;;13.65;100.00;101803.50;5031500;28;20456;-43
2023/05/22 02:39:10;;;;;;;20.70;18.83;;;;;;;13.63;100.00;101802.84;5031967;28;20452;-46
2023/05/22 02:41:38;;;;;;;20.27;18.63;;;;;;;13.58;100.00;101800.75;5031662;28;20436;-44
2023/05/22 02:44:06;;;;;;;20.40;18.57;;;;;;;13.58;100.00;101806.13;5031778;28;20440;-44
2023/05/22 02:46:33;;;;;;;21.43;19.47;;;;;;;13.58;100.00;101806.13;5031078;28;20480;-44
2023/05/22 02:49:01;;;;;;;20.50;18.50;;;;;;;13.56;100.00;101810.00;5031637;28;20471;-43
2023/05/22 02:51:29;;;;;;;21.40;19.43;;;;;;;13.58;100.00;101799.91;5031717;28;20435;-45
2023/05/22 02:53:57;;;;;;;22.97;18.97;;;;;;;13.59;100.00;101799.72;5031925;28;20459;-44
2023/05/22 02:56:28;;;;;;;21.73;19.60;;;;;;;13.56;100.00;101804.66;5031242;28;20550;-48
2023/05/22 02:58:56;;;;;;;24.70;20.30;;;;;;;13.54;100.00;101791.44;5031903;28;20454;-46
2023/05/22 03:01:25;;;;;;;22.13;19.70;;;;;;;13.60;100.00;101795.19;5031579;28;20428;-42
2023/05/22 03:03:53;;;;;;;25.53;19.40;;;;;;;13.59;100.00;101794.34;5031892;28;20459;-43
2023/05/22 03:06:22;;;;;;;20.97;19.00;;;;;;;13.58;100.00;101786.53;5031124;28;20537;-44
2023/05/22 03:08:49;;;;;;;20.77;18.70;;;;;;;13.61;100.00;101781.63;5031730;28;20550;-42
2023/05/22 03:11:17;;;;;;;21.03;18.70;;;;;;;13.58;100.00;101779.31;5031349;28;20432;-42
2023/05/22 03:13:46;;;;;;;22.30;20.00;;;;;;;13.61;100.00;101786.97;5031596;28;21124;-42
2023/05/22 03:16:14;;;;;;;20.60;18.70;;;;;;;13.61;100.00;101784.28;5031048;28;21015;-43
2023/05/22 03:18:42;;;;;;;18.90;17.33;;;;;;;13.62;100.00;101785.13;5031400;28;20538;-42
2023/05/22 03:21:09;;;;;;;22.17;19.43;;;;;;;13.63;100.00;101776.88;5031359;28;20964;-44
2023/05/22 03:23:37;;;;;;;20.73;18.90;;;;;;;13.61;100.00;101784.28;5031321;28;20432;-44
2023/05/22 03:26:05;;;;;;;21.57;18.10;;;;;;;13.62;100.00;101785.13;5029331;28;20473;-42
2023/05/22 03:28:33;;;;;;;22.67;18.90;;;;;;;13.61;100.00;101780.78;5033123;28;20471;-43
2023/05/22 03:31:02;;;;;;;21.47;19.37;;;;;;;13.62;100.00;101783.25;5035302;28;20432;-42
2023/05/22 03:33:29;;;;;;;24.60;18.17;;;;;;;13.66;100.00;101789.06;5035129;28;20439;-43
2023/05/22 03:35:57;;;;;;;22.37;19.83;;;;;;;13.71;100.00;101787.47;5034647;28;20456;-42
2023/05/22 03:38:25;;;;;;;18.10;16.50;;;;;;;13.71;100.00;101787.47;5035098;28;20465;-43
2023/05/22 03:40:53;;;;;;;19.70;17.80;;;;;;;13.76;100.00;101785.06;5035153;28;20936;-42
2023/05/22 03:43:21;;;;;;;20.17;18.37;;;;;;;13.77;100.00;101777.81;5034862;28;20952;-42
2023/05/22 03:45:49;;;;;;;19.77;17.10;;;;;;;13.81;100.00;101785.31;5034562;28;20478;-42
2023/05/22 03:48:18;;;;;;;18.57;16.83;;;;;;;13.82;100.00;101781.63;5034701;28;20504;-42
2023/05/22 03:50:45;;;;;;;18.63;16.73;;;;;;;13.89;100.00;101770.91;5034779;28;20461;-42
2023/05/22 03:53:13;;;;;;;17.13;15.40;;;;;;;13.90;100.00;101782.47;5033885;28;20515;-42
2023/05/22 03:55:41;;;;;;;21.50;17.07;;;;;;;13.93;100.00;101774.06;5032830;28;20459;-42
2023/05/22 03:58:08;;;;;;;19.93;15.53;;;;;;;13.94;100.00;101787.28;5034678;28;20523;-42
2023/05/22 04:00:37;;;;;;;19.37;17.50;;;;;;;14.01;100.00;101776.63;5034678;28;20455;-42
2023/05/22 04:03:06;;;;;;;17.50;15.97;;;;;;;14.05;100.00;101775.19;5034400;28;20995;-42
2023/05/22 04:05:35;;;;;;;18.10;16.40;;;;;;;14.06;100.00;101776.84;5033903;28;20506;-42
2023/05/22 04:08:03;;;;;;;18.00;16.40;;;;;;;14.14;100.00;101782.06;5034526;28;20845;-42
2023/05/22 04:10:31;;;;;;;18.03;16.20;;;;;;;14.20;100.00;101774.06;5034423;28;20472;-44
2023/05/22 04:12:59;;;;;;;16.97;15.30;;;;;;;14.30;100.00;101771.06;5034254;28;20971;-42
2023/05/22 04:15:27;;;;;;;17.73;16.20;;;;;;;14.34;100.00;101772.34;5033720;28;20495;-42
2023/05/22 04:17:55;;;;;;;17.70;15.83;;;;;;;14.40;100.00;101764.34;5034236;28;20488;-44
2023/05/22 04:20:23;;;;;;;19.27;17.37;;;;;;;14.53;100.00;101766.28;5034295;28;20424;-45
2023/05/22 04:22:53;;;;;;;18.37;16.87;;;;;;;14.58;100.00;101761.13;5034070;28;20472;-43
2023/05/22 04:25:21;;;;;;;18.07;16.43;;;;;;;14.74;100.00;101763.50;5033973;28;20462;-42
2023/05/22 04:27:49;;;;;;;15.80;14.60;;;;;;;14.73;100.00;101764.53;5032146;28;20503;-42
2023/05/22 04:30:17;;;;;;;17.53;15.77;;;;;;;14.78;100.00;101763.94;5034089;28;20429;-42
2023/05/22 04:32:45;;;;;;;17.67;15.87;;;;;;;14.77;100.00;101759.59;5033820;28;21088;-43
2023/05/22 04:35:17;;;;;;;22.03;15.50;;;;;;;14.87;100.00;101768.91;5033449;28;20925;-42
2023/05/22 04:37:45;;;;;;;15.57;13.97;;;;;;;14.88;100.00;101761.69;5033934;28;20977;-44
2023/05/22 04:40:14;;;;;;;15.53;14.23;;;;;;;14.93;100.00;101765.44;5033493;28;20420;-42
2023/05/22 04:42:42;;;;;;;15.90;14.30;;;;;;;15.05;100.00;101762.19;5033731;28;20483;-42
2023/05/22 04:45:12;;;;;;;15.97;14.67;;;;;;;15.25;100.00;101757.72;5033733;28;20421;-42
2023/05/22 04:47:41;;;;;;;16.47;14.60;;;;;;;15.37;100.00;101758.78;5033389;28;20480;-42
2023/05/22 04:50:09;;;;;;;14.77;13.60;;;;;;;15.69;100.00;101749.13;5033744;28;20494;-42
2023/05/22 04:52:37;;;;;;;15.97;14.00;;;;;;;15.88;100.00;101761.78;5033412;28;20432;-42
2023/05/22 04:55:06;;;;;;;16.10;14.00;;;;;;;16.05;100.00;101761.16;5033262;28;20522;-42
2023/05/22 04:57:35;;;;;;;16.93;14.37;;;;;;;16.43;100.00;101755.91;5033275;28;20867;-43
2023/05/22 05:00:05;;;;;;;15.97;14.37;;;;;;;16.93;100.00;101757.06;5033449;28;20464;-42
2023/05/22 05:02:32;;;;;;;15.07;13.70;;;;;;;17.46;100.00;101746.81;5033403;28;20436;-43
2023/05/22 05:05:00;;;;;;;16.57;13.40;;;;;;;17.68;100.00;101748.13;5033509;28;20435;-42
2023/05/22 05:07:28;;;;;;;14.17;12.87;;;;;;;17.98;100.00;101742.91;5033056;28;20535;-43
2023/05/22 05:09:55;;;;;;;14.83;13.30;;;;;;;18.56;100.00;101750.69;5033299;28;20436;-43
2023/05/22 05:12:23;;;;;;;14.00;12.80;;;;;;;18.84;100.00;101744.75;5033212;28;20493;-43
2023/05/22 05:14:52;;;;;;;13.17;11.27;;;;;;;19.15;100.00;101747.25;5033441;28;20428;-44
2023/05/22 05:17:21;;;;;;;13.73;11.77;;;;;;;19.56;100.00;101746.50;5032658;28;20544;-45
2023/05/22 05:19:48;;;;;;;12.73;11.67;;;;;;;19.41;100.00;101748.81;5033243;28;20506;-42
2023/05/22 05:22:16;;;;;;;12.83;11.70;;;;;;;19.71;100.00;101741.47;5032921;28;20499;-44
2023/05/22 05:24:44;;;;;;;12.07;10.87;;;;;;;19.83;100.00;101736.91;5032936;28;20427;-43
2023/05/22 05:27:12;;;;;;;13.37;10.93;;;;;;;20.36;100.00;101736.81;5030596;28;20460;-43
2023/05/22 05:29:40;;;;;;;11.40;10.40;;;;;;;20.73;100.00;101742.75;5032967;28;20467;-43
2023/05/22 05:32:10;;;;;;;11.70;10.50;;;;;;;21.25;100.00;101736.25;5032777;28;20463;-43
2023/05/22 05:34:38;;;;;;;12.33;10.50;;;;;;;21.26;100.00;101740.63;5032961;28;21096;-43
2023/05/22 05:37:06;;;;;;;10.07;9.20;;;;;;;21.34;100.00;101742.09;5032032;28;20460;-43
2023/05/22 05:39:33;;;;;;;10.30;9.20;;;;;;;21.20;100.00;101747.00;5032823;28;20517;-47
2023/05/22 05:42:01;;;;;;;10.53;9.47;;;;;;;20.91;100.00;101732.56;5032462;28;20526;-43
2023/05/22 05:44:29;;;;;;;12.30;9.03;;;;;;;20.85;100.00;101741.66;5032781;28;20478;-45
2023/05/22 05:46:59;;;;;;;12.20;9.43;;;;;;;20.51;100.00;101745.28;5032175;28;20498;-45
2023/05/22 05:49:28;;;;;;;14.63;9.83;;;;;;;20.15;100.00;101740.09;5032347;28;20515;-43
2023/05/22 05:51:56;;;;;;;9.70;8.90;;;;;;;19.66;100.00;101736.75;5031477;28;20549;-43
2023/05/22 05:54:25;;;;;;;9.13;8.33;;;;;;;19.24;100.00;101743.16;5032691;28;20455;-43
2023/05/22 05:56:53;;;;;;;11.00;9.67;;;;;;;18.96;100.00;101735.66;5032088;28;20459;-42
2023/05/22 05:59:21;;;;;;;10.77;9.63;;;;;;;18.74;100.00;101742.56;5032478;28;20444;-43
2023/05/22 06:01:49;;;;;;;11.17;9.70;;;;;;;18.77;100.00;101744.81;5032188;28;20486;-43
2023/05/22 06:04:17;;;;;;;11.40;9.27;;;;;;;18.60;100.00;101744.63;5032276;28;20422;-42
2023/05/22 06:06:46;;;;;;;12.00;9.23;;;;;;;18.61;100.00;101737.31;5031857;28;20463;-43
2023/05/22 06:09:14;;;;;;;11.60;10.60;;;;;;;18.74;100.00;101734.47;5032238;28;20479;-43
2023/05/22 06:11:42;;;;;;;12.17;8.73;;;;;;;19.18;100.00;101738.66;5032053;28;20469;-43
2023/05/22 06:14:09;;;;;;;10.33;9.33;;;;;;;19.58;100.00;101739.78;5032117;28;20439;-42
2023/05/22 06:16:37;;;;;;;9.17;8.40;;;;;;;19.93;100.00;101739.00;5031316;28;20976;-43
2023/05/22 06:19:05;;;;;;;9.50;8.77;;;;;;;20.35;100.00;101736.00;5032025;28;20455;-43
2023/05/22 06:21:33;;;;;;;11.90;9.03;;;;;;;20.78;100.00;101740.16;5031876;28;20471;-43
2023/05/22 06:24:02;;;;;;;9.70;8.80;;;;;;;20.96;100.00;101727.25;5032126;28;20431;-43
2023/05/22 06:26:30;;;;;;;9.17;8.27;;;;;;;21.21;100.00;101735.06;5029893;28;20468;-44
2023/05/22 06:28:58;;;;;;;10.43;8.70;;;;;;;21.16;100.00;101735.00;5031602;28;20510;-44
2023/05/22 06:31:26;;;;;;;10.20;9.20;;;;;;;21.23;100.00;101734.84;5031783;28;20439;-45
2023/05/22 06:33:54;;;;;;;10.27;9.03;;;;;;;21.09;100.00;101737.00;5031974;28;20440;-43
2023/05/22 06:36:22;;;;;;;11.60;8.60;;;;;;;20.98;100.00;101725.13;5031287;28;20475;-43
2023/05/22 06:38:50;;;;;;;10.73;8.50;;;;;;;20.81;100.00;101726.97;5032000;28;20961;-43
2023/05/22 06:41:19;;;;;;;9.63;8.77;;;;;;;20.87;100.00;101734.13;5031721;28;20465;-44
2023/05/22 06:43:47;;;;;;;9.33;8.30;;;;;;;20.85;100.00;101730.00;5031507;28;20847;-43
2023/05/22 06:46:15;;;;;;;9.40;8.60;;;;;;;20.98;100.00;101737.84;5031190;28;20881;-44
2023/05/22 06:48:42;;;;;;;8.90;8.00;;;;;;;21.36;100.00;101731.81;5031432;28;20514;-43
2023/05/22 06:51:11;;;;;;;10.77;9.87;;;;;;;21.71;100.00;101728.91;5031784;28;20432;-43
2023/05/22 06:53:39;;;;;;;9.70;8.80;;;;;;;21.82;100.00;101726.13;5031387;28;21006;-43
2023/05/22 06:56:07;;;;;;;12.03;9.47;;;;;;;22.34;99.79;101723.94;5030868;28;20521;-46
2023/05/22 06:58:36;;;;;;;9.63;7.90;;;;;;;22.27;95.60;101723.31;5031720;28;20481;-43
2023/05/22 07:01:04;;;;;;;13.23;9.23;;;;;;;22.37;97.18;101722.63;5031479;28;20530;-43
2023/05/22 07:03:32;;;;;;;8.57;7.83;;;;;;;22.40;96.85;101725.66;5035160;28;20833;-43
2023/05/22 07:06:00;;;;;;;13.20;8.83;;;;;;;22.33;100.00;101721.47;5035296;28;20459;-46
2023/05/22 07:08:28;;;;;;;9.50;8.60;;;;;;;22.54;94.05;101731.56;5035509;28;20887;-44
2023/05/22 07:10:57;;;;;;;8.77;7.97;;;;;;;22.95;95.99;101719.31;5035575;28;20443;-43
2023/05/22 07:13:25;;;;;;;11.43;9.20;;;;;;;23.45;86.24;101722.56;5035485;28;20714;-43
2023/05/22 07:15:54;;;;;;;12.97;8.40;;;;;;;23.65;83.59;101720.03;5034911;28;20490;-44
2023/05/22 07:18:21;;;;;;;8.10;7.50;;;;;;;24.23;84.50;101729.19;5035445;28;20455;-43
2023/05/22 07:20:49;;;;;;;9.03;7.47;;;;;;;24.20;79.28;101721.56;5035345;28;20941;-43
2023/05/22 07:23:17;;;;;;;9.37;8.47;;;;;;;24.50;76.21;101731.81;5035058;28;20812;-43
2023/05/22 07:25:44;;;;;;;8.73;8.00;;;;;;;24.42;74.03;101733.16;5034420;28;20477;-43
2023/05/22 07:28:12;;;;;;;11.10;8.13;;;;;;;24.66;72.97;101734.34;5034002;28;20889;-43
2023/05/22 07:30:40;;;;;;;7.60;7.07;;;;;;;24.72;74.01;101732.47;5035162;28;20565;-43
2023/05/22 07:33:10;;;;;;;10.30;7.53;;;;;;;24.67;72.22;101741.44;5035048;28;20438;-43
2023/05/22 07:35:38;;;;;;;9.63;8.70;;;;;;;24.60;73.79;101729.97;5034458;28;20466;-44
2023/05/22 07:38:05;;;;;;;8.63;7.63;;;;;;;24.40;75.00;101735.28;5034905;28;20448;-46
2023/05/22 07:40:33;;;;;;;9.43;7.33;;;;;;;24.41;73.59;101728.75;5035271;28;20474;-45
2023/05/22 07:43:01;;;;;;;7.43;6.73;;;;;;;24.37;77.12;101719.47;5034866;28;20514;-43
2023/05/22 07:45:28;;;;;;;8.50;7.57;;;;;;;24.30;75.87;101724.34;5034487;28;20471;-44
2023/05/22 07:47:57;;;;;;;8.17;7.50;;;;;;;23.98;76.88;101715.41;5034696;28;20463;-45
2023/05/22 07:50:29;;;;;;;8.50;7.70;;;;;;;23.78;79.15;101709.78;5034672;28;20481;-45
2023/05/22 07:52:57;;;;;;;8.70;7.83;;;;;;;23.63;82.21;101714.03;5034783;28;20455;-43
2023/05/22 07:55:25;;;;;;;8.60;7.70;;;;;;;23.49;82.54;101712.81;5034450;28;20479;-43
2023/05/22 07:57:52;;;;;;;8.07;7.37;;;;;;;23.36;84.37;101717.81;5034722;28;20478;-43
2023/05/22 08:00:21;;;;;;;12.60;7.80;;;;;;;22.98;85.72;101718.78;5034525;28;20983;-44
2023/05/22 08:02:49;;;;;;;9.57;7.40;;;;;;;22.81;89.88;101712.63;5034176;28;20973;-43
2023/05/22 08:05:16;;;;;;;10.57;7.63;;;;;;;22.56;93.27;101702.22;5034031;28;20956;-44
2023/05/22 08:07:46;;;;;;;11.27;8.27;;;;;;;22.34;95.98;101712.25;5034814;28;20455;-43
2023/05/22 08:10:15;;;;;;;8.37;7.63;;;;;;;22.44;94.87;101706.94;5034548;28;20475;-42
2023/05/22 08:12:43;;;;;;;10.43;7.30;;;;;;;22.11;97.34;101712.44;5034198;28;20876;-43
2023/05/22 08:15:11;;;;;;;9.80;8.20;;;;;;;22.00;97.62;101714.22;5032931;28;20454;-47
2023/05/22 08:17:39;;;;;;;9.00;8.23;;;;;;;21.74;99.61;101709.41;5034178;28;20454;-43
2023/05/22 08:20:08;;;;;;;9.97;8.00;;;;;;;21.58;99.27;101700.19;5034227;28;20428;-43
2023/05/22 08:22:39;;;;;;;9.67;8.80;;;;;;;21.53;100.00;101706.34;5034131;28;20443;-42
2023/05/22 08:25:09;;;;;;;8.83;8.23;;;;;;;21.28;100.00;101703.22;5033966;28;20424;-46
2023/05/22 08:27:37;;;;;;;9.80;8.90;;;;;;;21.13;100.00;101707.53;5032367;28;20966;-43
2023/05/22 08:30:06;;;;;;;9.00;8.10;;;;;;;21.05;100.00;101710.59;5033755;28;20849;-42
2023/05/22 08:32:33;;;;;;;9.17;8.47;;;;;;;21.09;100.00;101687.38;5034036;28;20436;-42
2023/05/22 08:35:01;;;;;;;10.30;9.30;;;;;;;21.26;100.00;101694.50;5033773;28;20442;-42
2023/05/22 08:37:29;;;;;;;12.77;9.00;;;;;;;21.20;100.00;101694.66;5033994;28;20459;-45
2023/05/22 08:39:57;;;;;;;9.30;8.40;;;;;;;21.50;100.00;101682.41;5033930;28;20434;-43
2023/05/22 08:42:26;;;;;;;8.57;7.87;;;;;;;21.41;100.00;101670.31;5033581;28;20929;-43
2023/05/22 08:44:56;;;;;;;9.13;8.23;;;;;;;21.98;100.00;101670.19;5034058;28;21047;-43
2023/05/22 08:47:27;;;;;;;9.60;8.80;;;;;;;22.11;99.89;101669.00;5033140;28;20517;-43
2023/05/22 08:49:57;;;;;;;9.30;8.20;;;;;;;22.19;100.00;101674.00;5033774;28;20482;-43
2023/05/22 08:52:32;;;;;;;9.57;8.40;;;;;;;22.14;100.00;101668.50;5033521;28;20434;-43
2023/05/22 08:55:03;;;;;;;10.13;8.10;;;;;;;22.24;97.08;101674.06;5033541;28;20450;-43
2023/05/22 08:57:33;;;;;;;8.27;7.57;;;;;;;22.37;96.43;101679.94;5033508;28;20794;-43
2023/05/22 09:00:01;;;;;;;9.60;8.63;;;;;;;22.51;95.95;101673.09;5033669;28;20427;-44
2023/05/22 09:02:29;;;;;;;9.57;8.57;;;;;;;22.55;97.65;101673.38;5033466;28;20467;-43
2023/05/22 09:04:57;;;;;;;10.00;8.43;;;;;;;22.54;94.26;101679.91;5033510;28;20432;-43
2023/05/22 09:07:26;;;;;;;8.17;7.57;;;;;;;22.72;95.86;101676.06;5032859;28;21022;-43
2023/05/22 09:09:54;;;;;;;9.03;8.13;;;;;;;22.93;95.07;101667.06;5033515;28;20471;-43
2023/05/22 09:12:22;;;;;;;8.20;7.60;;;;;;;23.26;91.62;101671.47;5033034;28;20440;-43
2023/05/22 09:14:50;;;;;;;8.30;7.70;;;;;;;23.05;90.70;101665.00;5033464;28;20424;-43
2023/05/22 09:17:21;;;;;;;10.03;8.30;;;;;;;23.00;89.76;101668.50;5032704;28;20471;-43
2023/05/22 09:19:49;;;;;;;9.97;9.03;;;;;;;22.90;90.01;101664.84;5033063;28;20482;-43
2023/05/22 09:22:17;;;;;;;9.40;7.53;;;;;;;22.60;93.32;101660.69;5033122;28;20440;-43
2023/05/22 09:24:45;;;;;;;9.07;8.27;;;;;;;22.40;94.57;101651.47;5033121;28;20435;-43
2023/05/22 09:27:13;;;;;;;8.90;8.13;;;;;;;22.46;95.91;101659.41;5030705;28;20467;-42
2023/05/22 09:29:48;;;;;;;8.90;8.10;;;;;;;22.34;97.04;101652.47;5032758;28;20485;-44
2023/05/22 09:32:18;;;;;;;9.53;8.17;;;;;;;22.26;99.25;101658.31;5032684;28;20488;-43
2023/05/22 09:34:46;;;;;;;8.93;8.20;;;;;;;22.57;97.90;101647.59;5032790;28;20436;-43
2023/05/22 09:37:14;;;;;;;8.40;7.80;;;;;;;22.74;98.00;101652.16;5032301;28;20503;-43
2023/05/22 09:39:44;;;;;;;10.67;8.07;;;;;;;23.13;96.56;101640.06;5032940;28;20432;-43
2023/05/22 09:42:15;;;;;;;8.33;7.63;;;;;;;23.26;94.47;101639.63;5032431;28;20477;-43
2023/05/22 09:44:48;;;;;;;9.50;8.60;;;;;;;23.47;91.36;101636.03;5032799;28;20431;-44
2023/05/22 09:47:17;;;;;;;9.77;9.07;;;;;;;23.29;92.39;101639.13;5032014;28;20464;-44
2023/05/22 09:49:45;;;;;;;9.23;8.50;;;;;;;23.29;91.79;101633.69;5036658;28;20495;-43
2023/05/22 09:52:14;;;;;;;8.33;7.80;;;;;;;23.25;90.75;101629.81;5039545;28;20953;-42
2023/05/22 09:54:49;;;;;;;8.73;8.00;;;;;;;23.13;90.98;101642.78;5040725;28;20428;-45
2023/05/22 09:57:19;;;;;;;9.37;8.47;;;;;;;22.81;93.56;101641.91;5039770;28;20554;-46
2023/05/22 09:59:52;;;;;;;9.07;8.37;;;;;;;22.80;94.53;101632.09;5039841;28;20463;-42
2023/05/22 10:02:23;;;;;;;8.80;8.00;;;;;;;22.64;94.13;101625.63;5039934;28;20859;-45
2023/05/22 10:04:52;;;;;;;10.73;9.70;;;;;;;22.55;96.44;101629.88;5039889;28;20435;-42
2023/05/22 10:07:22;;;;;;;9.53;8.70;;;;;;;22.42;96.98;101630.28;5039824;28;20463;-42
2023/05/22 10:09:54;;;;;;;10.07;8.93;;;;;;;22.42;98.53;101627.56;5039947;28;20431;-42
2023/05/22 10:12:28;;;;;;;10.30;8.57;;;;;;;22.46;97.53;101618.63;5039884;28;20435;-43
2023/05/22 10:14:56;;;;;;;10.07;8.70;;;;;;;22.67;97.48;101635.25;5039370;28;20510;-45
2023/05/22 10:17:26;;;;;;;14.23;8.80;;;;;;;22.93;95.91;101616.22;5038144;28;20467;-46
2023/05/22 10:19:57;;;;;;;11.50;9.10;;;;;;;22.98;90.63;101618.13;5037916;28;20427;-44
2023/05/22 10:22:27;;;;;;;9.50;8.80;;;;;;;23.27;89.67;101613.22;5038179;28;20485;-44
2023/05/22 10:24:55;;;;;;;9.70;8.20;;;;;;;23.47;88.90;101618.88;5038263;28;20435;-43
2023/05/22 10:27:22;;;;;;;9.33;7.87;;;;;;;23.59;86.90;101606.72;5036727;28;20487;-42
2023/05/22 10:29:55;;;;;;;9.70;8.90;;;;;;;23.71;84.72;101611.16;5039310;28;20458;-42
2023/05/22 10:32:33;;;;;;;11.13;8.07;;;;;;;23.79;84.72;101608.75;5039675;28;20471;-42
2023/05/22 10:35:08;;;;;;;9.57;8.60;;;;;;;23.60;85.30;101610.25;5039900;28;20454;-42
2023/05/22 10:37:48;;;;;;;11.40;8.77;;;;;;;23.43;84.26;101598.69;5038897;28;20462;-42
2023/05/22 10:40:27;;;;;;;10.50;9.33;;;;;;;23.33;84.59;101595.84;5040063;28;20542;-44
2023/05/22 10:42:59;;;;;;;11.00;10.13;;;;;;;23.04;86.65;101590.72;5039965;28;20439;-42
2023/05/22 10:45:28;;;;;;;10.80;9.23;;;;;;;22.92;88.67;101597.41;5038797;28;20456;-42
2023/05/22 10:48:04;;;;;;;13.17;9.67;;;;;;;22.90;90.09;101588.69;5039330;28;20464;-42
2023/05/22 10:50:32;;;;;;;9.90;9.10;;;;;;;22.68;94.43;101586.03;5039776;28;20435;-42
2023/05/22 10:53:22;;;;;;;10.30;9.47;;;;;;;22.80;88.93;101592.13;5039197;28;20941;-42
2023/05/22 10:55:50;;;;;;;9.93;8.97;;;;;;;22.97;86.37;101581.94;5038786;28;20546;-42
2023/05/22 10:58:25;;;;;;;11.30;10.20;;;;;;;23.35;85.21;101591.00;5039698;28;20487;-42
2023/05/22 11:01:08;;;;;;;9.97;9.13;;;;;;;23.44;81.82;101594.91;5039619;28;20435;-42
2023/05/22 11:03:56;;;;;;;10.07;9.27;;;;;;;23.64;78.06;101587.69;5039012;28;20459;-43
2023/05/22 11:06:36;;;;;;;9.90;9.10;;;;;;;23.53;79.49;101587.88;5038471;28;20455;-42
2023/05/22 11:09:27;;;;;;;11.53;8.00;;;;;;;23.65;80.38;101602.13;5039102;28;20996;-42
2023/05/22 11:12:16;;;;;;;9.53;8.80;;;;;;;23.65;76.51;101585.78;5039273;28;20475;-43
2023/05/22 11:14:48;;;;;;;8.43;7.80;;;;;;;23.86;75.47;101584.00;5039460;28;20467;-43
2023/05/22 11:17:18;;;;;;;11.47;10.23;;;;;;;23.89;75.30;101580.75;5038678;28;20827;-44
2023/05/22 11:19:57;;;;;;;10.70;9.60;;;;;;;23.81;74.43;101581.22;5039476;28;20432;-44